Spring's Hourly Summary for Sunday, July 8, 2018
Hour Temp
(f)
RH
(%)
Solar Rad.
(MJ/m2)
Rainfall
(in)
Wind
(mph)
7/8/2018 12:00 AM 76 89 0 0 0.22
7/8/2018 1:00 AM 76 89 0 0 0.56
7/8/2018 2:00 AM 75 91 0 0 0.82
7/8/2018 3:00 AM 74 92 0 0 0.25
7/8/2018 4:00 AM 74 93 0 0 0.19
7/8/2018 5:00 AM 74 93 0 0 0.15
7/8/2018 6:00 AM 74 93 0 0 0.56
7/8/2018 7:00 AM 73 94 0.02 0 0.5
7/8/2018 8:00 AM 75 84 0.3 0 0.66
7/8/2018 9:00 AM 79 75 1.09 0 1.57
7/8/2018 10:00 AM 82 69 1.85 0 1.72
7/8/2018 11:00 AM 84 62 2.16 0 1.77
7/8/2018 12:00 PM 86 57 2.4 0 1.95
7/8/2018 1:00 PM 86 55 1.69 0 2.04
7/8/2018 2:00 PM 78 58 0.56 0.03 7.02
7/8/2018 3:00 PM 75 93 0.42 0.04 3.51
7/8/2018 4:00 PM 77 83 1.18 0 3.3
7/8/2018 5:00 PM 79 78 1.61 0 4.59
7/8/2018 6:00 PM 80 76 0.89 0 5.09
7/8/2018 7:00 PM 80 75 0.57 0 3.45
7/8/2018 8:00 PM 79 78 0.2 0 2.29
7/8/2018 9:00 PM 77 84 0.03 0 2.01
7/8/2018 10:00 PM 77 84 0 0 0.52
7/8/2018 11:00 PM 77 89 0 0 0.65
Data Summary 77 80 14.97 0.07 1.89